• Join FlightAware (Why Join?)
  • Login
  • US Flag 
09:05AM EDT


 

Airport Tracker/Info


-or-


 

Live Flight TrackerFlight Track Log ✈ UAL3756 ✈ 30-Jul-2013 ✈ KIAD - KDTW

Flight Track Log - Related Links

Times and Time Zones

All times are in EDT time to prevent confusion due to time zone crossing. See the UAL3756 flight status page for this flight to view local times or setup timezone preferences in your user account.

Time Position Orientation Groundspeed Altitude Reporting Facility
EDT Latitude Longitude Course Direction KTS MPH feet Rate Location/Type
06:01PM 38.9500 -77.5000 288° West 166 191 1,600  Level Potomac TRACON
06:03PM 39.0214 -77.6222 307° West 275 316 4,600 2,160 Climbing Washington Center
06:04PM 39.0722 -77.7011 310° West 270 311 7,900 2,820 Climbing Washington Center
06:05PM 39.1444 -77.7325 341° North 256 295 10,300 1,920 Climbing Washington Center
06:06PM 39.4682 -77.6562 288° West  Level FlightAware Approximate
06:06PM 39.2294 -77.7619 345° North 280 322 11,800  Level Washington Center
06:07PM 39.3269 -77.7917 347° North 320 368 13,900 2,160 Climbing Washington Center
06:08PM 39.4264 -77.8242 346° North 348 400 16,100 2,100 Climbing Washington Center
06:09PM 39.5236 -77.8622 343° North 362 417 18,100 1,680 Climbing Washington Center
06:10PM 39.5733 -77.9742 300° West 340 391 19,600 1,560 Climbing Washington Center
06:11PM 39.6064 -78.0964 289° West 368 423 21,300 1,680 Climbing Washington Center
06:11PM 39.6375 -78.1919 293° West 386 444 22,400 1,560 Climbing Cleveland Center
06:12PM 39.6733 -78.3094 292° West 375 432 23,900 1,500 Climbing Cleveland Center
06:13PM 39.7136 -78.4431 291° West 380 437 25,400 1,500 Climbing Cleveland Center
06:14PM 39.7494 -78.5822 289° West 392 451 26,900 1,260 Climbing Cleveland Center
06:15PM 39.7914 -78.7269 291° West 402 463 28,000 540 Climbing Cleveland Center
06:16PM 39.8333 -78.8692 291° West 408 470 28,000  Level Cleveland Center
06:17PM 39.8728 -78.9981 292° West 402 463 28,000  Level Cleveland Center
06:18PM 39.8931 -79.1219 282° West 378 435 28,000  Level Cleveland Center
06:19PM 39.9094 -79.2542 279° West 368 423 28,000  Level Cleveland Center
06:20PM 39.9275 -79.3892 280° West 373 429 28,000  Level Cleveland Center
06:21PM 39.9456 -79.5161 281° West 373 429 28,000  Level Cleveland Center
06:22PM 39.9675 -79.6458 282° West 368 423 28,000  Level Cleveland Center
06:23PM 39.9581 -79.7733 265° West 363 418 28,000  Level Cleveland Center
06:24PM 39.9256 -79.9008 252° West 363 418 28,000 -60 Level Cleveland Center
06:25PM 39.8275 -79.9236 190° South 300 345 27,900 -360 Descending Cleveland Center
06:27PM 39.6628 -79.7511 141° Southeast 344 396 27,100 -360 Descending Washington Center
06:28PM 39.5747 -79.6408 136° Southeast 397 457 27,000 -60 Descending Washington Center
06:29PM 39.5000 -79.5128 127° Southeast 436 502 27,000 -540 Level Washington Center
06:30PM 39.4694 -79.3581 104° East 426 490 26,000 -1,320 Descending Washington Center
06:31PM 39.4422 -79.2222 105° East 426 490 24,500 -2,220 Descending Washington Center
06:32PM 39.4175 -79.0786 103° East 421 484 21,600 -2,580 Descending Washington Center
06:33PM 39.3900 -78.9375 104° East 415 478 19,400 -1,980 Descending Washington Center
06:34PM 39.3667 -78.8050 103° East 395 455 17,800 -1,740 Descending Washington Center
06:35PM 39.3431 -78.6725 103° East 385 443 16,000 -1,740 Descending Washington Center
06:36PM 39.3192 -78.5400 103° East 374 430 14,300 -1,620 Descending Washington Center
06:37PM 39.2950 -78.4156 104° East 368 423 12,800 -1,440 Descending Washington Center
06:38PM 39.2539 -78.3067 116° Southeast 348 400 11,500 -960 Descending Washington Center
06:39PM 39.2058 -78.2139 124° Southeast 329 379 11,000 -1,140 Descending Washington Center
06:40PM 39.1619 -78.1239 122° Southeast 316 364 9,300 -1,620 Descending Washington Center
06:41PM 39.2031 -78.0450 56° Northeast 227 261 7,800 -1,140 Descending Washington Center
06:42PM 39.2689 -77.9936 31° Northeast 225 259 7,000 -480 Descending Washington Center
06:43PM 39.3017 -77.9089 63° Northeast 239 275 6,900 -480 Descending Washington Center
06:44PM 39.3119 -77.8019 83° East 249 287 6,100 -960 Descending Washington Center
06:45PM 39.3117 -77.7028 90° East 260 299 5,100 -540 Descending Washington Center
06:46PM 39.2833 -77.6000 110° East 273 314 5,000 -360 Descending Potomac TRACON
06:47PM 39.2500 -77.5167 117° Southeast 270 311 4,400 -900 Descending Potomac TRACON
06:48PM 39.2000 -77.4500 134° Southeast 272 313 3,200 -720 Descending Potomac TRACON
06:49PM 39.1333 -77.4500 180° South 230 265 3,000 -420 Descending Potomac TRACON
06:50PM 39.0833 -77.4500 180° South 199 229 2,400 -900 Descending Potomac TRACON
06:51PM 39.0333 -77.4667 195° South 190 219 1,400 -900 Descending Potomac TRACON
06:52PM 38.9833 -77.4667 180° South 134 154 700 -720 Descending Potomac TRACON
06:54PM 38.9474 -77.4599 165° South  Level Estimated
07:01PM 38.9474 -77.4599 165° South  Level Estimated
07:02PM 38.9474 -77.4599 165° South  Level Estimated